createdAt,value
2022-11-24T00:00:12.336Z,525.0000
2022-11-24T00:01:14.116Z,528.0000
2022-11-24T00:02:14.490Z,533.0000
2022-11-24T00:03:17.004Z,533.0000
2022-11-24T00:04:18.880Z,536.0000
2022-11-24T00:05:21.185Z,532.0000
2022-11-24T00:06:21.340Z,534.0000
2022-11-24T00:07:23.724Z,532.0000
2022-11-24T00:08:25.964Z,529.0000
2022-11-24T00:09:28.270Z,523.0000
2022-11-24T00:10:30.571Z,527.0000
2022-11-24T00:11:32.866Z,526.0000
2022-11-24T00:12:35.227Z,525.0000
2022-11-24T00:13:35.165Z,532.0000
2022-11-24T00:14:37.436Z,526.0000
2022-11-24T00:15:39.695Z,531.0000
2022-11-24T00:16:41.992Z,520.0000
2022-11-24T00:17:44.330Z,527.0000
2022-11-24T00:18:46.493Z,526.0000
2022-11-24T00:19:48.740Z,525.0000
2022-11-24T00:22:21.317Z,517.0000
2022-11-24T00:23:23.478Z,515.0000
2022-11-24T00:24:25.613Z,519.0000
2022-11-24T00:25:27.797Z,523.0000
2022-11-24T00:26:30.040Z,520.0000
2022-11-24T00:27:32.258Z,526.0000
2022-11-24T00:28:36.679Z,524.0000
2022-11-24T00:29:26.041Z,520.0000
2022-11-24T00:30:26.355Z,518.0000
2022-11-24T00:31:30.567Z,514.0000
2022-11-24T00:32:30.606Z,522.0000
2022-11-24T00:33:32.859Z,527.0000
2022-11-24T00:34:29.735Z,535.0000
2022-11-24T00:35:30.946Z,531.0000
2022-11-24T00:36:33.218Z,529.0000
2022-11-24T00:37:35.495Z,532.0000
2022-11-24T00:38:35.637Z,531.0000
2022-11-24T00:39:37.950Z,527.0000
2022-11-24T00:40:40.220Z,533.0000
2022-11-24T00:41:42.542Z,536.0000
2022-11-24T00:42:44.794Z,542.0000
2022-11-24T00:43:47.097Z,534.0000
2022-11-24T00:44:49.438Z,530.0000
2022-11-24T00:45:51.621Z,534.0000
2022-11-24T00:46:51.692Z,534.0000
2022-11-24T00:47:53.786Z,534.0000
2022-11-24T00:48:56.004Z,530.0000
2022-11-24T00:49:58.248Z,527.0000
2022-11-24T00:51:00.344Z,525.0000
2022-11-24T00:52:02.616Z,530.0000
2022-11-24T00:53:04.900Z,527.0000
2022-11-24T00:54:07.210Z,524.0000
2022-11-24T00:55:09.553Z,525.0000
2022-11-24T00:56:11.847Z,526.0000
2022-11-24T00:57:11.992Z,536.0000
2022-11-24T00:58:14.264Z,527.0000
2022-11-24T00:59:16.543Z,526.0000
2022-11-24T01:00:18.910Z,527.0000
2022-11-24T01:01:21.260Z,523.0000
2022-11-24T01:02:23.517Z,524.0000
2022-11-24T01:03:23.614Z,518.0000
2022-11-24T01:04:25.924Z,516.0000
2022-11-24T01:05:28.296Z,520.0000
2022-11-24T01:06:30.555Z,519.0000
2022-11-24T01:07:32.912Z,524.0000
2022-11-24T01:08:35.190Z,516.0000
2022-11-24T01:09:37.392Z,518.0000
2022-11-24T01:10:39.765Z,520.0000
2022-11-24T01:11:41.952Z,519.0000
2022-11-24T01:12:44.188Z,519.0000
2022-11-24T01:13:46.480Z,520.0000
2022-11-24T01:14:48.793Z,520.0000
2022-11-24T01:15:51.186Z,518.0000
2022-11-24T01:16:51.214Z,519.0000
2022-11-24T01:17:53.487Z,517.0000
2022-11-24T01:18:55.769Z,518.0000
2022-11-24T01:19:58.048Z,523.0000
2022-11-24T01:21:00.395Z,522.0000
2022-11-24T01:22:02.617Z,523.0000
2022-11-24T01:23:04.897Z,524.0000
2022-11-24T01:24:05.039Z,524.0000
2022-11-24T01:25:07.368Z,523.0000
2022-11-24T01:26:09.720Z,530.0000
2022-11-24T01:27:12.010Z,525.0000
2022-11-24T01:28:14.313Z,529.0000
2022-11-24T01:29:16.610Z,532.0000
2022-11-24T01:30:18.901Z,533.0000
2022-11-24T01:31:19.164Z,529.0000
2022-11-24T01:32:21.396Z,528.0000
2022-11-24T01:33:23.667Z,529.0000
2022-11-24T01:34:25.944Z,529.0000
2022-11-24T01:35:28.206Z,528.0000
2022-11-24T01:36:30.637Z,530.0000
2022-11-24T01:37:30.594Z,532.0000
2022-11-24T01:38:32.829Z,533.0000
2022-11-24T01:39:35.053Z,537.0000
2022-11-24T01:40:37.292Z,534.0000
2022-11-24T01:41:39.612Z,530.0000
2022-11-24T01:42:41.817Z,531.0000
2022-11-24T01:43:44.088Z,532.0000
2022-11-24T01:44:46.339Z,532.0000
2022-11-24T01:45:46.533Z,536.0000
2022-11-24T01:46:48.762Z,536.0000
2022-11-24T01:47:51.000Z,538.0000
2022-11-24T01:48:53.249Z,540.0000
2022-11-24T01:49:55.514Z,530.0000
2022-11-24T01:50:57.770Z,529.0000
2022-11-24T01:52:00.124Z,532.0000
2022-11-24T01:53:02.354Z,533.0000
2022-11-24T01:54:04.633Z,537.0000
2022-11-24T01:55:04.734Z,536.0000
2022-11-24T01:56:07.011Z,534.0000
2022-11-24T01:57:09.416Z,542.0000
2022-11-24T01:58:11.574Z,540.0000
2022-11-24T01:59:13.893Z,544.0000
2022-11-24T02:00:16.212Z,540.0000
2022-11-24T02:01:18.550Z,543.0000
2022-11-24T02:02:18.779Z,543.0000
2022-11-24T02:03:20.964Z,543.0000
2022-11-24T02:04:23.253Z,537.0000
2022-11-24T02:05:25.527Z,542.0000
2022-11-24T02:06:27.774Z,537.0000
2022-11-24T02:07:30.198Z,536.0000
2022-11-24T02:08:32.271Z,535.0000
2022-11-24T02:09:34.547Z,535.0000
2022-11-24T02:10:34.703Z,535.0000
2022-11-24T02:11:37.005Z,542.0000
2022-11-24T02:12:39.357Z,535.0000
2022-11-24T02:13:41.576Z,534.0000
2022-11-24T02:14:43.860Z,533.0000
2022-11-24T02:15:46.288Z,534.0000
2022-11-24T02:16:46.278Z,533.0000
2022-11-24T02:17:48.552Z,533.0000
2022-11-24T02:18:50.708Z,534.0000
2022-11-24T02:19:52.921Z,534.0000
2022-11-24T02:20:55.183Z,533.0000
2022-11-24T02:21:57.420Z,540.0000
2022-11-24T02:22:59.748Z,540.0000
2022-11-24T02:24:01.972Z,539.0000
2022-11-24T02:25:04.262Z,537.0000
2022-11-24T02:26:06.543Z,531.0000
2022-11-24T02:27:06.670Z,532.0000
2022-11-24T02:28:08.986Z,529.0000
2022-11-24T02:29:11.243Z,531.0000
2022-11-24T02:30:13.523Z,536.0000
2022-11-24T02:31:15.893Z,534.0000
2022-11-24T02:32:18.094Z,532.0000
2022-11-24T02:33:20.432Z,531.0000
2022-11-24T02:34:20.564Z,528.0000
2022-11-24T02:35:22.839Z,533.0000
2022-11-24T02:36:25.145Z,532.0000
2022-11-24T02:37:27.466Z,532.0000
2022-11-24T02:38:29.912Z,532.0000
2022-11-24T02:39:32.034Z,532.0000
2022-11-24T02:40:34.313Z,530.0000
2022-11-24T02:41:34.443Z,532.0000
2022-11-24T02:42:36.763Z,534.0000
2022-11-24T02:43:39.334Z,532.0000
2022-11-24T02:44:41.416Z,533.0000
2022-11-24T02:45:43.757Z,524.0000
2022-11-24T02:46:46.066Z,531.0000
2022-11-24T02:47:48.367Z,535.0000
2022-11-24T02:48:50.696Z,532.0000
2022-11-24T02:49:52.989Z,528.0000
2022-11-24T02:50:55.261Z,532.0000
2022-11-24T02:51:57.582Z,533.0000
2022-11-24T02:52:57.760Z,535.0000
2022-11-24T02:54:00.140Z,534.0000
2022-11-24T02:55:02.340Z,535.0000
2022-11-24T02:56:04.612Z,535.0000
2022-11-24T02:57:06.904Z,536.0000
2022-11-24T02:58:09.220Z,537.0000
2022-11-24T02:59:11.517Z,533.0000
2022-11-24T03:00:11.605Z,538.0000
2022-11-24T03:01:13.973Z,538.0000
2022-11-24T03:02:16.281Z,537.0000
2022-11-24T03:03:18.467Z,535.0000
2022-11-24T03:04:21.019Z,539.0000
2022-11-24T03:05:23.031Z,538.0000
2022-11-24T03:06:25.325Z,538.0000
2022-11-24T03:07:25.523Z,539.0000
2022-11-24T03:08:27.769Z,534.0000
2022-11-24T03:09:30.342Z,533.0000
2022-11-24T03:10:32.385Z,540.0000
2022-11-24T03:11:34.648Z,530.0000
2022-11-24T03:12:36.895Z,520.0000
2022-11-24T03:13:39.134Z,523.0000
2022-11-24T03:14:41.377Z,527.0000
2022-11-24T03:15:41.575Z,536.0000
2022-11-24T03:16:43.809Z,538.0000
2022-11-24T03:17:46.101Z,538.0000
2022-11-24T03:18:48.410Z,538.0000
2022-11-24T03:19:50.827Z,536.0000
2022-11-24T03:20:53.032Z,532.0000
2022-11-24T03:21:53.187Z,527.0000
2022-11-24T03:22:55.499Z,536.0000
2022-11-24T03:23:57.811Z,539.0000
2022-11-24T03:25:00.216Z,541.0000
2022-11-24T03:26:02.509Z,542.0000
2022-11-24T03:27:02.732Z,540.0000
2022-11-24T03:28:05.104Z,542.0000
2022-11-24T03:29:07.479Z,543.0000
2022-11-24T03:30:09.899Z,543.0000
2022-11-24T03:31:12.236Z,538.0000
2022-11-24T03:32:12.423Z,540.0000
2022-11-24T03:33:14.794Z,537.0000
2022-11-24T03:34:17.167Z,539.0000
2022-11-24T03:35:19.499Z,543.0000
2022-11-24T03:36:21.817Z,533.0000
2022-11-24T03:37:22.016Z,536.0000
2022-11-24T03:38:24.370Z,537.0000
2022-11-24T03:39:26.735Z,537.0000
2022-11-24T03:40:29.148Z,534.0000
2022-11-24T03:41:31.452Z,542.0000
2022-11-24T03:42:31.673Z,536.0000
2022-11-24T03:43:37.822Z,531.0000
2022-11-24T03:44:36.561Z,533.0000
2022-11-24T03:45:45.871Z,537.0000
2022-11-24T03:46:40.948Z,532.0000
2022-11-24T03:47:41.120Z,536.0000
2022-11-24T03:48:43.427Z,529.0000
2022-11-24T03:49:45.783Z,532.0000
2022-11-24T03:50:48.145Z,536.0000
2022-11-24T03:51:50.446Z,539.0000
2022-11-24T03:52:52.764Z,540.0000
2022-11-24T03:53:52.980Z,526.0000
2022-11-24T03:54:55.300Z,534.0000
2022-11-24T03:55:57.884Z,538.0000
2022-11-24T03:56:59.970Z,527.0000
2022-11-24T03:58:00.146Z,531.0000
2022-11-24T03:59:02.458Z,529.0000
2022-11-24T04:00:04.804Z,539.0000
2022-11-24T04:01:07.056Z,541.0000
2022-11-24T04:02:09.387Z,538.0000
2022-11-24T04:03:11.687Z,538.0000
2022-11-24T04:04:13.804Z,545.0000
2022-11-24T04:05:16.101Z,546.0000
2022-11-24T04:06:16.353Z,545.0000
2022-11-24T04:07:18.730Z,539.0000
2022-11-24T04:08:21.099Z,540.0000
2022-11-24T04:09:23.467Z,545.0000
2022-11-24T04:10:23.644Z,547.0000
2022-11-24T04:11:26.065Z,544.0000
2022-11-24T04:12:28.343Z,546.0000
2022-11-24T04:13:30.719Z,546.0000
2022-11-24T04:14:33.486Z,547.0000
2022-11-24T04:15:35.464Z,549.0000
2022-11-24T04:16:37.879Z,547.0000
2022-11-24T04:17:40.209Z,547.0000
2022-11-24T04:18:42.609Z,545.0000
2022-11-24T04:19:42.798Z,547.0000
2022-11-24T04:20:45.088Z,545.0000
2022-11-24T04:21:47.519Z,540.0000
2022-11-24T04:22:49.869Z,537.0000
2022-11-24T04:23:52.255Z,539.0000
2022-11-24T04:24:52.520Z,539.0000
2022-11-24T04:25:54.861Z,552.0000
2022-11-24T04:26:57.391Z,673.0000
2022-11-24T04:27:59.605Z,676.0000
2022-11-24T04:28:59.826Z,670.0000
2022-11-24T04:30:02.192Z,627.0000
2022-11-24T04:31:04.645Z,628.0000
2022-11-24T04:32:06.962Z,613.0000
2022-11-24T04:33:07.148Z,610.0000
2022-11-24T04:34:09.541Z,619.0000
2022-11-24T04:35:11.912Z,616.0000
2022-11-24T04:36:14.252Z,602.0000
2022-11-24T04:37:14.487Z,596.0000
2022-11-24T04:39:23.289Z,597.0000
2022-11-24T04:39:26.326Z,600.0000
2022-11-24T04:40:21.544Z,603.0000
2022-11-24T04:41:23.845Z,607.0000
2022-11-24T04:42:24.120Z,607.0000
2022-11-24T04:43:26.454Z,606.0000
2022-11-24T04:44:28.817Z,603.0000
2022-11-24T04:45:31.192Z,603.0000
2022-11-24T04:46:33.683Z,612.0000
2022-11-24T04:47:33.827Z,606.0000
2022-11-24T04:48:36.176Z,600.0000
2022-11-24T04:49:38.557Z,602.0000
2022-11-24T04:50:40.920Z,600.0000
2022-11-24T04:51:41.114Z,600.0000
2022-11-24T04:52:43.461Z,606.0000
2022-11-24T04:53:45.764Z,610.0000
2022-11-24T04:54:48.125Z,606.0000
2022-11-24T04:55:50.467Z,605.0000
2022-11-24T04:56:50.635Z,600.0000
2022-11-24T04:57:53.027Z,607.0000
2022-11-24T04:58:55.313Z,608.0000
2022-11-24T04:59:57.647Z,608.0000
2022-11-24T05:00:59.981Z,608.0000
2022-11-24T05:02:02.363Z,607.0000
2022-11-24T05:03:02.478Z,605.0000
2022-11-24T05:04:04.851Z,606.0000
2022-11-24T05:05:07.137Z,607.0000
2022-11-24T05:06:09.479Z,606.0000
2022-11-24T05:07:17.788Z,613.0000
2022-11-24T05:08:12.036Z,614.0000
2022-11-24T05:09:14.310Z,616.0000
2022-11-24T05:10:16.611Z,619.0000
2022-11-24T05:11:18.964Z,620.0000
2022-11-24T05:12:19.114Z,620.0000
2022-11-24T05:13:23.589Z,627.0000
2022-11-24T05:14:24.789Z,619.0000
2022-11-24T05:15:27.081Z,621.0000
2022-11-24T05:16:27.395Z,625.0000
2022-11-24T05:17:29.625Z,621.0000
2022-11-24T05:18:31.950Z,624.0000
2022-11-24T05:19:34.224Z,629.0000
2022-11-24T05:20:36.541Z,632.0000
2022-11-24T05:21:38.853Z,635.0000
2022-11-24T05:22:41.156Z,640.0000
2022-11-24T05:23:43.521Z,640.0000
2022-11-24T05:24:45.801Z,640.0000
2022-11-24T05:25:48.200Z,642.0000
2022-11-24T05:26:50.467Z,651.0000
2022-11-24T05:27:52.803Z,657.0000
2022-11-24T05:28:55.283Z,653.0000
2022-11-24T05:29:57.446Z,668.0000
2022-11-24T05:30:59.796Z,667.0000
2022-11-24T05:32:02.107Z,665.0000
2022-11-24T05:33:04.420Z,670.0000
2022-11-24T05:34:06.793Z,668.0000
2022-11-24T05:35:09.096Z,674.0000
2022-11-24T05:36:11.444Z,676.0000
2022-11-24T05:37:13.781Z,678.0000
2022-11-24T05:38:13.976Z,677.0000
2022-11-24T05:39:16.337Z,680.0000
2022-11-24T05:40:18.634Z,683.0000
2022-11-24T05:41:20.935Z,689.0000
2022-11-24T05:42:23.270Z,692.0000
2022-11-24T05:43:25.589Z,697.0000
2022-11-24T05:44:27.978Z,703.0000
2022-11-24T05:45:30.230Z,706.0000
2022-11-24T05:46:32.627Z,710.0000
2022-11-24T05:47:34.885Z,706.0000
2022-11-24T05:48:37.213Z,710.0000
2022-11-24T05:49:39.674Z,717.0000
2022-11-24T05:50:41.863Z,717.0000
2022-11-24T05:51:44.185Z,718.0000
2022-11-24T05:52:46.489Z,717.0000
2022-11-24T05:53:48.782Z,716.0000
2022-11-24T05:54:51.132Z,720.0000
2022-11-24T05:55:53.351Z,718.0000
2022-11-24T05:56:55.676Z,717.0000
2022-11-24T05:57:55.819Z,718.0000
2022-11-24T05:58:58.075Z,720.0000
2022-11-24T06:00:00.356Z,721.0000
2022-11-24T06:01:02.575Z,716.0000
2022-11-24T06:02:02.794Z,720.0000
2022-11-24T06:03:05.249Z,715.0000
2022-11-24T06:04:07.363Z,709.0000
2022-11-24T06:05:09.714Z,710.0000
2022-11-24T06:06:12.043Z,709.0000
2022-11-24T06:07:14.453Z,713.0000
2022-11-24T06:08:16.709Z,710.0000
2022-11-24T06:09:19.058Z,712.0000
2022-11-24T06:10:21.422Z,708.0000
2022-11-24T06:11:21.612Z,710.0000
2022-11-24T06:12:23.998Z,714.0000
2022-11-24T06:13:26.427Z,709.0000
2022-11-24T06:14:26.602Z,707.0000
2022-11-24T06:15:29.073Z,708.0000
2022-11-24T06:16:31.436Z,711.0000
2022-11-24T06:17:31.570Z,713.0000
2022-11-24T06:18:33.942Z,717.0000
2022-11-24T06:19:41.484Z,720.0000
2022-11-24T06:20:36.546Z,722.0000
2022-11-24T06:21:38.855Z,723.0000
2022-11-24T06:22:41.211Z,720.0000
2022-11-24T06:23:41.424Z,718.0000
2022-11-24T06:24:43.780Z,717.0000
2022-11-24T06:25:51.269Z,719.0000
2022-11-24T06:26:46.340Z,719.0000
2022-11-24T06:27:48.736Z,722.0000
2022-11-24T06:28:51.103Z,722.0000
2022-11-24T06:29:51.315Z,721.0000
2022-11-24T06:30:53.824Z,719.0000
2022-11-24T06:31:56.118Z,719.0000
2022-11-24T06:32:58.396Z,722.0000
2022-11-24T06:34:00.823Z,721.0000
2022-11-24T06:35:03.130Z,718.0000
2022-11-24T06:36:03.388Z,712.0000
2022-11-24T06:37:05.704Z,709.0000
2022-11-24T06:38:08.066Z,708.0000
2022-11-24T06:39:08.203Z,705.0000
2022-11-24T06:40:10.561Z,704.0000
2022-11-24T06:41:12.940Z,704.0000
2022-11-24T06:42:15.214Z,701.0000
2022-11-24T06:43:17.561Z,705.0000
2022-11-24T06:44:19.860Z,704.0000
2022-11-24T06:45:22.127Z,697.0000
2022-11-24T06:46:24.582Z,694.0000
2022-11-24T06:47:26.699Z,694.0000
2022-11-24T06:48:29.077Z,692.0000
2022-11-24T06:49:31.482Z,687.0000
2022-11-24T06:50:33.970Z,687.0000
2022-11-24T06:51:36.135Z,682.0000
2022-11-24T06:52:38.471Z,680.0000
2022-11-24T06:53:40.855Z,658.0000
2022-11-24T06:54:41.094Z,663.0000
2022-11-24T06:55:43.447Z,673.0000
2022-11-24T06:56:45.820Z,676.0000
2022-11-24T06:57:46.025Z,675.0000
2022-11-24T06:58:48.409Z,673.0000
2022-11-24T06:59:50.772Z,670.0000
2022-11-24T07:00:51.053Z,668.0000
2022-11-24T07:01:53.370Z,670.0000
2022-11-24T07:02:55.760Z,671.0000
2022-11-24T07:03:58.015Z,667.0000
2022-11-24T07:05:00.327Z,668.0000
2022-11-24T07:06:02.679Z,670.0000
2022-11-24T07:07:02.898Z,681.0000
2022-11-24T07:08:05.257Z,672.0000
2022-11-24T07:09:07.607Z,674.0000
2022-11-24T07:10:09.917Z,670.0000
2022-11-24T07:11:12.274Z,671.0000
2022-11-24T07:12:14.671Z,667.0000
2022-11-24T07:13:14.862Z,669.0000
2022-11-24T07:14:17.210Z,670.0000
2022-11-24T07:15:19.580Z,667.0000
2022-11-24T07:16:19.873Z,666.0000
2022-11-24T07:17:22.226Z,671.0000
2022-11-24T07:18:24.521Z,669.0000
2022-11-24T07:19:25.336Z,665.0000
2022-11-24T07:20:27.067Z,665.0000
2022-11-24T07:21:29.442Z,662.0000
2022-11-24T07:22:29.774Z,661.0000
2022-11-24T07:23:32.003Z,662.0000
2022-11-24T07:24:34.633Z,661.0000
2022-11-24T07:25:36.680Z,658.0000
2022-11-24T07:26:39.074Z,657.0000
2022-11-24T07:27:41.522Z,655.0000
2022-11-24T07:28:41.705Z,655.0000
2022-11-24T07:29:44.093Z,657.0000
2022-11-24T07:30:46.471Z,660.0000
2022-11-24T07:31:46.783Z,661.0000
2022-11-24T07:32:49.145Z,657.0000
2022-11-24T07:33:51.468Z,657.0000
2022-11-24T07:34:51.642Z,653.0000
2022-11-24T07:35:53.984Z,651.0000
2022-11-24T07:36:56.327Z,653.0000
2022-11-24T07:37:56.664Z,660.0000
2022-11-24T07:38:58.860Z,658.0000
2022-11-24T07:40:01.132Z,656.0000
2022-11-24T07:41:03.331Z,655.0000
2022-11-24T07:42:05.530Z,653.0000
2022-11-24T07:43:07.867Z,648.0000
2022-11-24T07:44:09.937Z,652.0000
2022-11-24T07:45:12.153Z,652.0000
2022-11-24T07:46:14.453Z,648.0000
2022-11-24T07:47:16.615Z,640.0000
2022-11-24T07:48:18.921Z,642.0000
2022-11-24T07:49:21.093Z,644.0000
2022-11-24T07:50:23.322Z,643.0000
2022-11-24T07:51:25.598Z,644.0000
2022-11-24T07:52:27.966Z,642.0000
2022-11-24T07:53:30.314Z,639.0000
2022-11-24T07:54:33.104Z,634.0000
2022-11-24T07:55:34.961Z,638.0000
2022-11-24T07:56:37.318Z,638.0000
2022-11-24T07:57:39.659Z,639.0000
2022-11-24T07:59:55.283Z,613.0000
2022-11-24T08:00:57.314Z,617.0000
2022-11-24T08:01:59.571Z,616.0000
2022-11-24T08:03:01.848Z,613.0000
2022-11-24T08:04:04.262Z,621.0000
2022-11-24T08:05:06.457Z,622.0000
2022-11-24T08:06:27.252Z,620.0000
2022-11-24T08:07:11.028Z,616.0000
2022-11-24T08:08:11.128Z,610.0000
2022-11-24T08:09:13.415Z,623.0000
2022-11-24T08:10:15.732Z,620.0000
2022-11-24T08:11:18.006Z,620.0000
2022-11-24T08:12:20.285Z,625.0000
2022-11-24T08:13:22.571Z,615.0000
2022-11-24T08:14:24.859Z,616.0000
2022-11-24T08:15:25.040Z,617.0000
2022-11-24T08:16:27.395Z,616.0000
2022-11-24T08:17:29.579Z,620.0000
2022-11-24T08:18:31.847Z,621.0000
2022-11-24T08:19:34.156Z,617.0000
2022-11-24T08:20:36.443Z,619.0000
2022-11-24T08:21:38.702Z,619.0000
2022-11-24T08:22:40.988Z,620.0000
2022-11-24T08:23:41.159Z,617.0000
2022-11-24T08:24:43.463Z,620.0000
2022-11-24T08:25:45.813Z,620.0000
2022-11-24T08:26:48.084Z,620.0000
2022-11-24T08:27:50.399Z,622.0000
2022-11-24T08:28:52.661Z,620.0000
2022-11-24T08:29:52.785Z,613.0000
2022-11-24T08:30:55.103Z,614.0000
2022-11-24T08:31:57.424Z,613.0000
2022-11-24T08:32:59.724Z,613.0000
2022-11-24T08:34:01.951Z,611.0000
2022-11-24T08:35:18.915Z,612.0000
2022-11-24T08:36:04.415Z,611.0000
2022-11-24T08:37:06.693Z,609.0000
2022-11-24T08:38:09.018Z,607.0000
2022-11-24T08:39:11.353Z,611.0000
2022-11-24T08:40:13.712Z,611.0000
2022-11-24T08:41:16.109Z,611.0000
2022-11-24T08:42:16.310Z,609.0000
2022-11-24T08:43:18.656Z,613.0000
2022-11-24T08:44:21.021Z,615.0000
2022-11-24T08:45:25.628Z,615.0000
2022-11-24T08:46:23.824Z,618.0000
2022-11-24T08:47:25.973Z,612.0000
2022-11-24T08:48:28.317Z,611.0000
2022-11-24T08:49:30.668Z,608.0000
2022-11-24T08:50:33.058Z,610.0000
2022-11-24T08:51:33.391Z,608.0000
2022-11-24T08:52:35.629Z,602.0000
2022-11-24T08:53:37.955Z,602.0000
2022-11-24T08:54:40.314Z,603.0000
2022-11-24T08:55:42.638Z,600.0000
2022-11-24T08:56:42.886Z,599.0000
2022-11-24T08:57:45.230Z,600.0000
2022-11-24T08:58:47.666Z,600.0000
2022-11-24T08:59:49.975Z,600.0000
2022-11-24T09:00:52.352Z,601.0000
2022-11-24T09:01:52.628Z,595.0000
2022-11-24T09:02:54.935Z,597.0000
2022-11-24T09:03:57.391Z,598.0000
2022-11-24T09:04:59.698Z,597.0000
2022-11-24T09:05:59.947Z,595.0000
2022-11-24T09:07:02.355Z,597.0000
2022-11-24T09:08:04.688Z,592.0000
2022-11-24T09:09:07.086Z,594.0000
2022-11-24T09:10:07.301Z,599.0000
2022-11-24T09:11:09.668Z,606.0000
2022-11-24T09:12:14.845Z,614.0000
2022-11-24T09:13:14.385Z,603.0000
2022-11-24T09:14:14.593Z,610.0000
2022-11-24T09:15:16.966Z,617.0000
2022-11-24T09:16:19.459Z,629.0000
2022-11-24T09:17:21.715Z,640.0000
2022-11-24T09:18:27.587Z,648.0000
2022-11-24T09:19:24.281Z,652.0000
2022-11-24T09:20:26.617Z,643.0000
2022-11-24T09:21:29.004Z,642.0000
2022-11-24T09:22:31.369Z,644.0000
2022-11-24T09:23:33.692Z,648.0000
2022-11-24T09:24:33.899Z,644.0000
2022-11-24T09:25:36.279Z,638.0000
2022-11-24T09:26:43.051Z,650.0000
2022-11-24T09:27:41.020Z,646.0000
2022-11-24T09:28:41.189Z,642.0000
2022-11-24T09:29:43.553Z,638.0000
2022-11-24T09:30:45.964Z,647.0000
2022-11-24T09:31:48.249Z,633.0000
2022-11-24T09:32:50.636Z,638.0000
2022-11-24T09:33:50.807Z,647.0000
2022-11-24T09:34:53.110Z,652.0000
2022-11-24T09:35:55.451Z,647.0000
2022-11-24T09:36:57.792Z,650.0000
2022-11-24T09:38:00.204Z,644.0000
2022-11-24T09:39:02.389Z,637.0000
2022-11-24T09:40:58.575Z,633.0000
2022-11-24T09:42:00.860Z,637.0000
2022-11-24T09:43:03.247Z,640.0000
2022-11-24T09:44:03.368Z,642.0000
2022-11-24T09:45:05.687Z,640.0000
2022-11-24T09:46:08.062Z,635.0000
2022-11-24T09:47:10.233Z,636.0000
2022-11-24T09:48:12.579Z,634.0000
2022-11-24T09:49:14.720Z,630.0000
2022-11-24T09:50:16.991Z,630.0000
2022-11-24T09:51:19.284Z,629.0000
2022-11-24T09:52:19.443Z,624.0000
2022-11-24T09:53:21.700Z,621.0000
2022-11-24T09:54:23.933Z,624.0000
2022-11-24T09:55:26.215Z,621.0000
2022-11-24T09:56:28.462Z,622.0000
2022-11-24T09:57:35.828Z,623.0000
2022-11-24T09:58:33.065Z,618.0000
2022-11-24T09:59:35.667Z,619.0000
2022-11-24T10:00:35.445Z,622.0000
2022-11-24T10:01:37.884Z,622.0000
2022-11-24T10:02:40.006Z,616.0000
2022-11-24T10:03:42.398Z,619.0000
2022-11-24T10:04:44.553Z,621.0000
2022-11-24T10:05:46.759Z,625.0000
2022-11-24T10:06:49.096Z,625.0000
2022-11-24T10:07:51.483Z,623.0000
2022-11-24T10:08:51.623Z,621.0000
2022-11-24T10:09:53.943Z,620.0000
2022-11-24T10:10:56.264Z,619.0000
2022-11-24T10:11:58.583Z,621.0000
2022-11-24T10:13:00.881Z,616.0000
2022-11-24T10:14:03.282Z,616.0000
2022-11-24T10:15:05.541Z,614.0000
2022-11-24T10:16:07.957Z,615.0000
2022-11-24T10:17:10.232Z,617.0000
2022-11-24T10:18:16.775Z,612.0000
2022-11-24T10:19:12.780Z,607.0000
2022-11-24T10:20:15.105Z,607.0000
2022-11-24T10:21:17.440Z,608.0000
2022-11-24T10:22:19.784Z,605.0000
2022-11-24T10:23:22.171Z,607.0000
2022-11-24T10:24:22.426Z,605.0000
2022-11-24T10:25:24.598Z,604.0000
2022-11-24T10:26:26.907Z,604.0000
2022-11-24T10:27:29.234Z,604.0000
2022-11-24T10:28:31.556Z,599.0000
2022-11-24T10:29:34.114Z,595.0000
2022-11-24T10:30:34.043Z,604.0000
2022-11-24T10:31:36.456Z,602.0000
2022-11-24T10:32:38.663Z,604.0000
2022-11-24T10:33:40.965Z,602.0000
2022-11-24T10:34:43.287Z,599.0000
2022-11-24T10:35:45.571Z,600.0000
2022-11-24T10:36:47.864Z,595.0000
2022-11-24T10:37:47.994Z,597.0000
2022-11-24T10:38:50.291Z,597.0000
2022-11-24T10:39:57.096Z,598.0000
2022-11-24T10:40:57.561Z,598.0000
2022-11-24T10:41:57.097Z,597.0000
2022-11-24T10:42:59.381Z,597.0000
2022-11-24T10:44:01.704Z,594.0000
2022-11-24T10:45:01.957Z,591.0000
2022-11-24T10:46:04.155Z,588.0000
2022-11-24T10:47:06.376Z,590.0000
2022-11-24T10:48:08.687Z,592.0000
2022-11-24T10:49:10.897Z,594.0000
2022-11-24T10:50:13.144Z,597.0000
2022-11-24T10:51:15.291Z,597.0000
2022-11-24T10:52:17.458Z,595.0000
2022-11-24T10:53:19.623Z,596.0000
2022-11-24T10:54:21.873Z,597.0000
2022-11-24T10:55:22.115Z,589.0000
2022-11-24T10:56:24.293Z,586.0000
2022-11-24T10:57:26.593Z,592.0000
2022-11-24T10:58:34.293Z,600.0000
2022-11-24T10:59:31.189Z,600.0000
2022-11-24T11:00:33.642Z,599.0000
2022-11-24T11:01:35.827Z,585.0000
2022-11-24T11:02:36.027Z,585.0000
2022-11-24T11:03:38.307Z,595.0000
2022-11-24T11:04:40.617Z,609.0000
2022-11-24T11:05:42.991Z,609.0000
2022-11-24T11:06:45.266Z,612.0000
2022-11-24T11:07:47.638Z,616.0000
2022-11-24T11:08:47.830Z,620.0000
2022-11-24T11:09:50.195Z,623.0000
2022-11-24T11:10:52.561Z,621.0000
2022-11-24T11:11:55.556Z,623.0000
2022-11-24T11:12:55.154Z,618.0000
2022-11-24T11:14:03.487Z,623.0000
2022-11-24T11:14:58.814Z,622.0000
2022-11-24T11:16:01.201Z,634.0000
2022-11-24T11:17:03.437Z,638.0000
2022-11-24T11:18:05.789Z,645.0000
2022-11-24T11:19:26.146Z,644.0000
2022-11-24T11:20:10.346Z,641.0000
2022-11-24T11:21:12.708Z,635.0000
2022-11-24T11:22:14.985Z,637.0000
2022-11-24T11:23:17.300Z,641.0000
2022-11-24T11:24:19.613Z,631.0000
2022-11-24T11:25:21.923Z,651.0000
2022-11-24T11:26:24.198Z,654.0000
2022-11-24T11:27:24.281Z,649.0000
2022-11-24T11:28:26.571Z,650.0000
2022-11-24T11:31:33.722Z,644.0000
2022-11-24T11:34:40.838Z,652.0000
2022-11-24T11:35:42.783Z,658.0000
2022-11-24T11:36:45.155Z,656.0000
2022-11-24T11:37:45.124Z,658.0000
2022-11-24T11:38:47.380Z,650.0000
2022-11-24T11:39:49.661Z,650.0000
2022-11-24T11:40:51.981Z,656.0000
2022-11-24T11:41:52.143Z,654.0000
2022-11-24T11:43:02.352Z,654.0000
2022-11-24T11:43:56.731Z,651.0000
2022-11-24T11:44:58.976Z,650.0000
2022-11-24T11:46:01.365Z,642.0000
2022-11-24T11:47:03.722Z,642.0000
2022-11-24T11:48:05.849Z,643.0000
2022-11-24T11:49:06.021Z,651.0000
2022-11-24T11:50:08.335Z,665.0000
2022-11-24T11:51:26.159Z,659.0000
2022-11-24T11:52:10.934Z,663.0000
2022-11-24T11:53:13.223Z,662.0000
2022-11-24T11:54:15.546Z,663.0000
2022-11-24T11:55:17.841Z,661.0000
2022-11-24T11:56:20.191Z,663.0000
2022-11-24T11:57:22.649Z,667.0000
2022-11-24T11:58:24.866Z,663.0000
2022-11-24T11:59:27.233Z,654.0000
2022-11-24T12:00:29.598Z,662.0000
2022-11-24T12:01:29.827Z,665.0000
2022-11-24T12:02:32.423Z,668.0000
2022-11-24T12:03:34.568Z,667.0000
2022-11-24T12:04:37.076Z,665.0000
2022-11-24T12:05:39.151Z,672.0000
2022-11-24T12:06:41.523Z,663.0000
2022-11-24T12:07:42.234Z,658.0000
2022-11-24T12:09:17.878Z,659.0000
2022-11-24T12:09:46.481Z,660.0000
2022-11-24T12:10:46.707Z,663.0000
2022-11-24T12:11:49.066Z,640.0000
2022-11-24T12:12:51.417Z,660.0000
2022-11-24T12:13:51.596Z,643.0000
2022-11-24T12:14:53.971Z,648.0000